createdAt,value
2023-02-13T00:00:11.702Z,1.40
2023-02-13T00:02:38.485Z,1.05
2023-02-13T00:05:05.300Z,1.20
2023-02-13T00:07:31.793Z,1.10
2023-02-13T00:09:58.331Z,1.10
2023-02-13T00:12:25.078Z,1.45
2023-02-13T00:14:51.698Z,1.10
2023-02-13T00:17:18.277Z,1.23
2023-02-13T00:19:44.871Z,0.98
2023-02-13T00:22:11.800Z,1.30
2023-02-13T00:24:38.326Z,1.75
2023-02-13T00:27:04.904Z,2.03
2023-02-13T00:29:31.480Z,1.27
2023-02-13T00:31:58.126Z,1.77
2023-02-13T00:34:24.749Z,1.42
2023-02-13T00:36:51.328Z,1.30
2023-02-13T00:39:17.901Z,1.55
2023-02-13T00:41:44.813Z,1.67
2023-02-13T00:44:11.551Z,1.80
2023-02-13T00:46:38.788Z,1.70
2023-02-13T00:49:05.841Z,1.80
2023-02-13T00:51:32.665Z,1.60
2023-02-13T00:53:59.291Z,2.05
2023-02-13T00:56:25.785Z,1.85
2023-02-13T00:58:52.274Z,1.63
2023-02-13T01:01:18.991Z,1.73
2023-02-13T01:03:45.615Z,1.67
2023-02-13T01:06:12.149Z,1.77
2023-02-13T01:08:39.971Z,1.63
2023-02-13T01:11:07.229Z,1.75
2023-02-13T01:13:33.816Z,1.75
2023-02-13T01:16:00.897Z,2.00
2023-02-13T01:18:27.484Z,2.15
2023-02-13T01:21:02.427Z,2.20
2023-02-13T01:23:33.405Z,2.83
2023-02-13T01:26:00.459Z,1.83
2023-02-13T01:28:27.062Z,2.10
2023-02-13T01:30:55.253Z,2.33
2023-02-13T01:33:23.429Z,2.05
2023-02-13T01:35:50.441Z,1.55
2023-02-13T01:38:17.684Z,2.80
2023-02-13T01:40:52.323Z,1.85
2023-02-13T01:43:19.048Z,2.13
2023-02-13T01:45:47.538Z,1.70
2023-02-13T01:48:16.069Z,1.73
2023-02-13T01:50:50.119Z,1.73
2023-02-13T01:53:29.141Z,1.70
2023-02-13T01:56:00.910Z,2.10
2023-02-13T01:58:31.279Z,3.45
2023-02-13T02:00:59.047Z,4.40
2023-02-13T02:03:40.027Z,3.38
2023-02-13T02:06:08.386Z,2.88
2023-02-13T02:08:35.104Z,2.28
2023-02-13T02:11:07.511Z,2.38
2023-02-13T02:13:34.043Z,1.55
2023-02-13T02:16:00.914Z,1.65
2023-02-13T02:18:27.530Z,1.70
2023-02-13T02:21:04.165Z,1.65
2023-02-13T02:23:48.368Z,2.42
2023-02-13T02:26:33.843Z,1.70
2023-02-13T02:29:41.896Z,2.00
2023-02-13T02:32:30.234Z,1.80
2023-02-13T02:35:19.974Z,1.67
2023-02-13T02:37:46.462Z,1.60
2023-02-13T02:40:31.370Z,1.60
2023-02-13T02:43:13.834Z,1.98
2023-02-13T02:46:08.372Z,1.65
2023-02-13T02:49:29.876Z,1.60
2023-02-13T02:51:59.529Z,1.65
2023-02-13T02:55:06.610Z,1.77
2023-02-13T02:57:54.838Z,1.83
2023-02-13T03:00:42.738Z,1.70
2023-02-13T03:03:37.269Z,1.70
2023-02-13T03:06:14.007Z,1.70
2023-02-13T03:09:01.232Z,1.58
2023-02-13T03:11:47.075Z,1.70
2023-02-13T03:14:15.438Z,1.98
2023-02-13T03:17:00.550Z,1.95
2023-02-13T03:19:53.560Z,1.95
2023-02-13T03:22:29.200Z,2.00
2023-02-13T03:25:10.769Z,2.03
2023-02-13T03:28:08.266Z,2.00
2023-02-13T03:30:49.779Z,1.58
2023-02-13T03:33:25.310Z,1.70
2023-02-13T03:36:19.567Z,1.48
2023-02-13T03:38:59.895Z,1.50
2023-02-13T03:41:42.207Z,1.75
2023-02-13T03:44:27.092Z,1.58
2023-02-13T03:46:55.831Z,1.50
2023-02-13T03:49:45.362Z,1.95
2023-02-13T03:52:19.610Z,1.70
2023-02-13T03:55:08.751Z,1.73
2023-02-13T03:57:55.662Z,1.60
2023-02-13T04:00:22.285Z,1.88
2023-02-13T04:03:04.373Z,1.50
2023-02-13T04:05:35.301Z,2.20
2023-02-13T04:08:01.816Z,1.42
2023-02-13T04:10:29.741Z,1.92
2023-02-13T04:13:05.516Z,1.60
2023-02-13T04:15:41.799Z,1.55
2023-02-13T04:18:17.066Z,1.77
2023-02-13T04:20:43.993Z,1.48
2023-02-13T04:23:12.266Z,2.08
2023-02-13T04:25:40.771Z,1.80
2023-02-13T04:28:07.389Z,1.90
2023-02-13T04:30:34.226Z,1.65
2023-02-13T04:33:00.797Z,1.35
2023-02-13T04:35:27.453Z,1.67
2023-02-13T04:37:53.981Z,1.70
2023-02-13T04:40:20.504Z,1.20
2023-02-13T04:42:49.002Z,1.58
2023-02-13T04:45:15.887Z,1.33
2023-02-13T04:47:42.465Z,1.73
2023-02-13T04:50:09.568Z,1.58
2023-02-13T04:52:36.041Z,2.25
2023-02-13T04:55:02.540Z,1.95
2023-02-13T04:57:29.069Z,1.70
2023-02-13T04:59:55.597Z,1.85
2023-02-13T05:02:22.162Z,1.30
2023-02-13T05:04:48.822Z,1.50
2023-02-13T05:07:15.481Z,1.98
2023-02-13T05:09:42.096Z,1.65
2023-02-13T05:12:08.638Z,1.60
2023-02-13T05:14:35.580Z,1.30
2023-02-13T05:17:02.136Z,1.33
2023-02-13T05:19:28.672Z,1.48
2023-02-13T05:22:13.796Z,1.40
2023-02-13T05:24:40.459Z,1.80
2023-02-13T05:27:06.991Z,1.58
2023-02-13T05:29:33.465Z,1.83
2023-02-13T05:32:00.391Z,2.05
2023-02-13T05:34:28.570Z,1.67
2023-02-13T05:36:55.497Z,1.45
2023-02-13T05:39:22.440Z,1.70
2023-02-13T05:41:49.578Z,1.63
2023-02-13T05:44:16.547Z,1.73
2023-02-13T05:46:44.863Z,1.67
2023-02-13T05:49:12.965Z,1.60
2023-02-13T05:51:39.525Z,1.77
2023-02-13T05:54:06.139Z,1.50
2023-02-13T05:56:32.678Z,1.88
2023-02-13T05:59:01.326Z,1.52
2023-02-13T06:01:28.011Z,1.57
2023-02-13T06:03:54.536Z,1.70
2023-02-13T06:06:22.756Z,1.48
2023-02-13T06:08:49.361Z,1.80
2023-02-13T06:11:15.969Z,1.73
2023-02-13T06:13:42.771Z,1.85
2023-02-13T06:16:10.917Z,1.88
2023-02-13T06:18:37.655Z,2.00
2023-02-13T06:21:04.273Z,2.55
2023-02-13T06:23:31.031Z,1.90
2023-02-13T06:26:01.334Z,1.85
2023-02-13T06:28:27.968Z,2.00
2023-02-13T06:30:54.749Z,2.38
2023-02-13T06:33:21.347Z,1.67
2023-02-13T06:35:47.876Z,1.88
2023-02-13T06:38:14.474Z,1.75
2023-02-13T06:40:41.199Z,2.17
2023-02-13T06:43:07.781Z,1.92
2023-02-13T06:45:34.416Z,2.20
2023-02-13T06:48:01.008Z,2.00
2023-02-13T06:50:27.617Z,2.22
2023-02-13T06:52:54.174Z,2.60
2023-02-13T06:55:21.154Z,2.22
2023-02-13T06:57:47.905Z,2.55
2023-02-13T07:00:16.299Z,2.00
2023-02-13T07:02:46.759Z,1.95
2023-02-13T07:05:13.671Z,2.05
2023-02-13T07:07:41.458Z,2.53
2023-02-13T07:10:10.830Z,2.00
2023-02-13T07:12:37.628Z,2.25
2023-02-13T07:15:05.939Z,2.38
2023-02-13T07:17:33.939Z,2.30
2023-02-13T07:20:01.200Z,2.40
2023-02-13T07:22:27.889Z,2.38
2023-02-13T07:24:54.458Z,2.00
2023-02-13T07:27:20.991Z,2.20
2023-02-13T07:29:47.572Z,2.35
2023-02-13T07:32:14.094Z,2.08
2023-02-13T07:34:49.277Z,2.20
2023-02-13T07:37:28.354Z,1.90
2023-02-13T07:39:54.912Z,2.20
2023-02-13T07:42:21.494Z,2.15
2023-02-13T07:44:48.081Z,2.38
2023-02-13T07:47:14.622Z,1.75
2023-02-13T07:49:41.192Z,2.08
2023-02-13T07:52:08.110Z,1.85
2023-02-13T07:54:34.690Z,1.70
2023-02-13T07:57:01.226Z,1.60
2023-02-13T07:59:27.839Z,1.60
2023-02-13T08:01:54.404Z,1.98
2023-02-13T08:04:21.024Z,1.85
2023-02-13T08:06:47.560Z,1.98
2023-02-13T08:09:39.671Z,1.65
2023-02-13T08:12:08.305Z,1.85
2023-02-13T08:14:35.155Z,1.67
2023-02-13T08:17:02.202Z,1.63
2023-02-13T08:19:28.859Z,1.52
2023-02-13T08:21:55.522Z,2.20
2023-02-13T08:24:22.107Z,2.20
2023-02-13T08:26:48.997Z,1.58
2023-02-13T08:29:15.627Z,1.52
2023-02-13T08:31:42.320Z,1.60
2023-02-13T08:34:08.976Z,1.50
2023-02-13T08:36:35.529Z,1.75
2023-02-13T08:39:02.138Z,1.88
2023-02-13T08:41:28.683Z,1.58
2023-02-13T08:43:55.453Z,2.22
2023-02-13T08:46:22.387Z,1.67
2023-02-13T08:48:49.024Z,1.88
2023-02-13T08:51:15.721Z,2.00
2023-02-13T08:53:42.762Z,1.77
2023-02-13T08:56:09.845Z,1.60
2023-02-13T08:58:36.440Z,3.45
2023-02-13T09:01:07.644Z,1.80
2023-02-13T09:03:35.313Z,1.80
2023-02-13T09:06:02.751Z,1.88
2023-02-13T09:08:29.364Z,1.77
2023-02-13T09:10:58.427Z,1.52
2023-02-13T09:13:24.951Z,1.35
2023-02-13T09:15:51.459Z,1.52
2023-02-13T09:18:18.214Z,1.52
2023-02-13T09:20:44.775Z,1.20
2023-02-13T09:23:11.578Z,1.60
2023-02-13T09:25:38.074Z,1.30
2023-02-13T09:28:04.736Z,1.67
2023-02-13T09:30:31.276Z,1.52
2023-02-13T09:32:57.981Z,1.27
2023-02-13T09:35:24.596Z,2.15
2023-02-13T09:37:51.130Z,1.45
2023-02-13T09:40:53.925Z,1.38
2023-02-13T09:43:32.048Z,1.60
2023-02-13T09:46:14.103Z,1.45
2023-02-13T09:48:43.942Z,1.42
2023-02-13T09:51:18.617Z,1.58
2023-02-13T09:54:02.602Z,1.30
2023-02-13T09:57:00.728Z,3.13
2023-02-13T09:59:56.994Z,1.40
2023-02-13T10:02:29.143Z,1.17
2023-02-13T10:05:09.853Z,1.40
2023-02-13T10:08:12.291Z,1.20
2023-02-13T10:11:09.700Z,1.33
2023-02-13T10:13:42.371Z,1.35
2023-02-13T10:16:21.541Z,1.75
2023-02-13T10:19:28.996Z,1.30
2023-02-13T10:22:00.795Z,1.73
2023-02-13T10:24:39.155Z,1.40
2023-02-13T10:27:22.416Z,1.40
2023-02-13T10:30:06.738Z,1.35
2023-02-13T10:32:47.270Z,1.75
2023-02-13T10:35:23.521Z,1.42
2023-02-13T10:37:52.801Z,1.20
2023-02-13T10:40:19.729Z,1.15
2023-02-13T10:42:53.552Z,1.60
2023-02-13T10:45:30.071Z,1.23
2023-02-13T10:48:08.710Z,1.40
2023-02-13T10:50:35.120Z,1.33
2023-02-13T10:53:23.452Z,1.40
2023-02-13T10:56:18.301Z,1.25
2023-02-13T10:58:53.919Z,1.30
2023-02-13T11:01:38.403Z,1.17
2023-02-13T11:04:11.335Z,1.33
2023-02-13T11:06:43.072Z,1.15
2023-02-13T11:09:09.851Z,1.27
2023-02-13T11:11:38.763Z,1.00
2023-02-13T11:14:14.470Z,1.33
2023-02-13T11:16:52.250Z,1.20
2023-02-13T11:19:29.478Z,1.13
2023-02-13T11:22:08.987Z,1.13
2023-02-13T11:24:36.472Z,1.00
2023-02-13T11:27:09.227Z,2.03
2023-02-13T11:29:37.304Z,0.90
2023-02-13T11:32:12.731Z,1.33
2023-02-13T11:34:39.502Z,0.70
2023-02-13T11:37:21.604Z,1.10
2023-02-13T11:39:51.418Z,1.50
2023-02-13T11:42:30.252Z,1.35
2023-02-13T11:45:03.744Z,1.20
2023-02-13T11:47:41.495Z,1.50
2023-02-13T11:50:30.352Z,1.20
2023-02-13T11:53:06.237Z,1.05
2023-02-13T11:55:35.006Z,1.10
2023-02-13T11:58:11.070Z,1.05
2023-02-13T12:00:43.095Z,1.10
2023-02-13T12:03:31.493Z,1.20
2023-02-13T12:06:15.399Z,1.23
2023-02-13T12:08:44.716Z,1.20
2023-02-13T12:11:58.881Z,1.27
2023-02-13T12:14:30.624Z,1.10
2023-02-13T12:17:30.801Z,1.25
2023-02-13T12:19:58.349Z,1.02
2023-02-13T12:22:44.897Z,1.30
2023-02-13T12:25:17.487Z,1.58
2023-02-13T12:28:12.267Z,1.25
2023-02-13T12:30:57.556Z,0.80
2023-02-13T12:33:39.972Z,1.10
2023-02-13T12:36:25.307Z,1.20
2023-02-13T12:39:15.527Z,1.20
2023-02-13T12:42:15.690Z,1.13
2023-02-13T12:45:03.371Z,1.50
2023-02-13T12:47:33.182Z,1.08
2023-02-13T12:50:13.478Z,1.10
2023-02-13T12:52:47.162Z,0.98
2023-02-13T12:55:28.970Z,1.55
2023-02-13T12:58:17.444Z,1.10
2023-02-13T13:01:08.518Z,1.10
2023-02-13T13:03:45.651Z,1.17
2023-02-13T13:06:28.958Z,1.13
2023-02-13T13:09:07.683Z,0.98
2023-02-13T13:11:40.406Z,1.23
2023-02-13T13:14:17.934Z,1.08
2023-02-13T13:16:59.395Z,1.10
2023-02-13T13:19:47.539Z,0.90
2023-02-13T13:22:33.470Z,0.98
2023-02-13T13:25:13.520Z,1.08
2023-02-13T13:27:44.360Z,1.00
2023-02-13T13:30:26.439Z,1.30
2023-02-13T13:33:04.266Z,1.40
2023-02-13T13:35:31.556Z,1.70
2023-02-13T13:38:06.468Z,1.25
2023-02-13T13:41:01.840Z,1.45
2023-02-13T13:43:50.006Z,1.20
2023-02-13T13:46:39.667Z,1.80
2023-02-13T13:49:26.390Z,1.85
2023-02-13T13:51:52.993Z,1.70
2023-02-13T13:54:23.645Z,2.10
2023-02-13T13:56:53.290Z,2.40
2023-02-13T13:59:41.875Z,1.65
2023-02-13T14:02:17.602Z,5.53
2023-02-13T14:05:19.794Z,3.15
2023-02-13T14:07:49.088Z,1.10
2023-02-13T14:10:21.773Z,1.30
2023-02-13T14:12:50.655Z,1.10
2023-02-13T14:15:37.596Z,1.10
2023-02-13T14:18:13.362Z,1.08
2023-02-13T14:20:51.123Z,1.08
2023-02-13T14:23:39.725Z,1.70
2023-02-13T14:26:15.181Z,2.00
2023-02-13T14:28:43.093Z,1.20
2023-02-13T14:31:16.963Z,1.30
2023-02-13T14:33:43.684Z,1.20
2023-02-13T14:36:21.350Z,1.10
2023-02-13T14:38:59.129Z,1.50
2023-02-13T14:41:43.107Z,1.60
2023-02-13T14:44:22.613Z,1.05
2023-02-13T14:46:50.098Z,1.23
2023-02-13T14:49:26.166Z,1.23
2023-02-13T14:51:57.098Z,1.20
2023-02-13T14:54:43.826Z,1.35
2023-02-13T14:57:16.855Z,1.58
2023-02-13T15:00:26.154Z,1.20
2023-02-13T15:05:31.995Z,1.23
2023-02-13T15:08:38.678Z,1.30
2023-02-13T15:11:25.557Z,1.20
2023-02-13T15:13:52.113Z,1.25
2023-02-13T15:16:19.473Z,1.42
2023-02-13T15:18:49.376Z,1.10
2023-02-13T15:21:18.739Z,1.45
2023-02-13T15:23:49.853Z,1.10
2023-02-13T15:26:23.920Z,1.20
2023-02-13T15:29:02.884Z,0.98
2023-02-13T15:31:33.597Z,1.00
2023-02-13T15:34:01.313Z,1.40
2023-02-13T15:36:35.451Z,1.67
2023-02-13T15:39:09.808Z,1.40
2023-02-13T15:41:43.135Z,1.33
2023-02-13T15:44:22.364Z,1.55
2023-02-13T15:46:53.817Z,1.05
2023-02-13T15:49:23.372Z,1.10
2023-02-13T15:54:29.590Z,0.82
2023-02-13T15:56:59.484Z,1.20
2023-02-13T15:59:33.510Z,1.23
2023-02-13T16:02:01.453Z,1.70
2023-02-13T16:04:28.484Z,1.50
2023-02-13T16:06:56.088Z,2.10
2023-02-13T16:09:27.447Z,1.90
2023-02-13T16:11:57.716Z,1.63
2023-02-13T16:14:26.167Z,3.50
2023-02-13T16:17:02.428Z,5.10
2023-02-13T16:19:51.022Z,6.40
2023-02-13T16:22:45.540Z,3.50
2023-02-13T16:25:12.282Z,2.15
2023-02-13T16:28:02.205Z,2.08
2023-02-13T16:31:03.804Z,1.92
2023-02-13T16:33:42.025Z,1.20
2023-02-13T16:36:11.639Z,1.17
2023-02-13T16:38:46.505Z,1.35
2023-02-13T16:41:21.200Z,1.58
2023-02-13T16:43:52.688Z,1.40
2023-02-13T16:46:28.604Z,1.80
2023-02-13T16:49:08.613Z,2.63
2023-02-13T16:51:58.333Z,4.25
2023-02-13T16:54:31.087Z,2.72
2023-02-13T16:57:07.242Z,3.95
2023-02-13T17:00:00.680Z,2.75
2023-02-13T17:02:34.924Z,3.05
2023-02-13T17:05:07.762Z,3.92
2023-02-13T17:07:43.686Z,4.75
2023-02-13T17:10:34.049Z,5.28
2023-02-13T17:13:11.924Z,3.90
2023-02-13T17:15:42.172Z,3.47
2023-02-13T17:18:08.776Z,3.05
2023-02-13T17:20:36.676Z,2.20
2023-02-13T17:23:08.143Z,1.92
2023-02-13T17:25:37.667Z,1.60
2023-02-13T17:30:41.813Z,1.30
2023-02-13T17:33:35.487Z,2.33
2023-02-13T17:36:02.099Z,1.63
2023-02-13T17:38:28.630Z,1.40
2023-02-13T17:40:55.201Z,1.45
2023-02-13T17:43:21.754Z,1.60
2023-02-13T17:45:49.739Z,1.90
2023-02-13T17:48:17.138Z,2.85
2023-02-13T17:50:43.918Z,2.72
2023-02-13T17:53:23.730Z,3.47
2023-02-13T17:55:50.782Z,3.65
2023-02-13T17:58:17.419Z,5.07
2023-02-13T18:00:44.142Z,6.00
2023-02-13T18:03:12.644Z,5.78
2023-02-13T18:05:39.350Z,6.40
2023-02-13T18:08:06.064Z,6.45
2023-02-13T18:10:35.419Z,7.30
2023-02-13T18:13:05.454Z,4.90
2023-02-13T18:15:39.796Z,5.32
2023-02-13T18:18:06.447Z,3.10
2023-02-13T18:20:34.206Z,3.08
2023-02-13T18:23:01.190Z,3.03
2023-02-13T18:25:29.159Z,6.65
2023-02-13T18:27:55.781Z,10.85
2023-02-13T18:30:22.929Z,14.43
2023-02-13T18:32:56.418Z,16.90
2023-02-13T18:35:23.725Z,16.38
2023-02-13T18:37:50.591Z,15.52
2023-02-13T18:40:17.796Z,13.13
2023-02-13T18:42:44.793Z,16.85
2023-02-13T18:45:12.226Z,20.42
2023-02-13T18:47:39.054Z,24.25
2023-02-13T18:50:06.362Z,24.83
2023-02-13T18:52:34.373Z,19.65
2023-02-13T18:55:01.006Z,13.75
2023-02-13T18:57:27.698Z,10.30
2023-02-13T18:59:54.335Z,10.50
2023-02-13T19:02:21.192Z,8.27
2023-02-13T19:04:47.982Z,12.65
2023-02-13T19:07:14.602Z,20.38
2023-02-13T19:09:41.284Z,12.13
2023-02-13T19:12:08.177Z,7.70
2023-02-13T19:14:34.786Z,6.68
2023-02-13T19:17:01.370Z,5.05
2023-02-13T19:19:27.981Z,8.35
2023-02-13T19:21:54.817Z,11.38
2023-02-13T19:24:21.372Z,9.02
2023-02-13T19:26:48.190Z,7.43
2023-02-13T19:29:14.889Z,5.07
2023-02-13T19:31:41.705Z,4.25
2023-02-13T19:34:08.438Z,3.92
2023-02-13T19:36:35.068Z,2.75
2023-02-13T19:39:04.806Z,2.88
2023-02-13T19:41:31.582Z,3.25
2023-02-13T19:43:58.566Z,3.20
2023-02-13T19:46:30.791Z,2.97
2023-02-13T19:48:58.050Z,3.05
2023-02-13T19:51:29.706Z,2.97
2023-02-13T19:54:00.243Z,2.80
2023-02-13T19:56:28.972Z,2.75
2023-02-13T19:58:55.501Z,2.80
2023-02-13T20:01:23.854Z,2.53
2023-02-13T20:03:50.771Z,2.20
2023-02-13T20:06:32.482Z,2.05
2023-02-13T20:08:59.990Z,2.30
2023-02-13T20:11:26.757Z,2.70
2023-02-13T20:14:04.070Z,2.10
2023-02-13T20:16:33.215Z,2.15
2023-02-13T20:19:01.885Z,2.45
2023-02-13T20:21:28.495Z,2.57
2023-02-13T20:23:55.060Z,2.67
2023-02-13T20:26:21.673Z,2.33
2023-02-13T20:28:48.561Z,2.70
2023-02-13T20:31:20.045Z,2.60
2023-02-13T20:33:47.268Z,2.17
2023-02-13T20:36:18.833Z,2.13
2023-02-13T20:38:45.624Z,2.53
2023-02-13T20:41:23.969Z,2.53
2023-02-13T20:43:50.851Z,2.25
2023-02-13T20:46:28.618Z,2.90
2023-02-13T20:48:55.711Z,2.17
2023-02-13T20:51:22.404Z,2.53
2023-02-13T20:53:49.429Z,2.38
2023-02-13T20:56:23.223Z,3.22
2023-02-13T20:58:51.858Z,3.10
2023-02-13T21:01:20.129Z,3.80
2023-02-13T21:03:54.694Z,5.43
2023-02-13T21:06:25.275Z,5.03
2023-02-13T21:08:52.022Z,4.07
2023-02-13T21:11:18.963Z,3.42
2023-02-13T21:13:45.808Z,3.58
2023-02-13T21:16:15.357Z,4.28
2023-02-13T21:21:11.449Z,3.70
2023-02-13T21:23:38.602Z,2.88
2023-02-13T21:26:10.602Z,2.40
2023-02-13T21:28:37.617Z,2.40
2023-02-13T21:31:08.800Z,3.00
2023-02-13T21:33:35.779Z,2.28
2023-02-13T21:36:04.195Z,2.80
2023-02-13T21:38:31.188Z,2.67
2023-02-13T21:41:18.464Z,3.10
2023-02-13T21:43:48.366Z,3.35
2023-02-13T21:46:23.219Z,2.60
2023-02-13T21:48:58.853Z,2.50
2023-02-13T21:51:26.895Z,2.70
2023-02-13T21:53:53.498Z,4.32
2023-02-13T21:56:22.460Z,2.97
2023-02-13T21:58:49.313Z,3.03
2023-02-13T22:01:26.428Z,2.72
2023-02-13T22:03:56.795Z,3.13
2023-02-13T22:06:25.520Z,3.10
2023-02-13T22:09:01.949Z,2.83
2023-02-13T22:11:29.170Z,2.75
2023-02-13T22:13:57.153Z,2.53
2023-02-13T22:16:24.219Z,2.80
2023-02-13T22:18:50.939Z,2.38
2023-02-13T22:21:20.580Z,2.90
2023-02-13T22:23:48.923Z,2.60
2023-02-13T22:26:22.311Z,2.55
2023-02-13T22:28:49.510Z,2.63
2023-02-13T22:31:16.568Z,2.47
2023-02-13T22:33:47.497Z,2.55
2023-02-13T22:36:19.392Z,2.80
2023-02-13T22:41:17.357Z,2.45
2023-02-13T22:43:44.308Z,2.60
2023-02-13T22:46:11.936Z,2.42
2023-02-13T22:48:39.564Z,2.63
2023-02-13T22:51:11.388Z,2.13
2023-02-13T22:53:38.626Z,2.13
2023-02-13T22:56:06.187Z,2.72
2023-02-13T22:58:32.785Z,2.63
2023-02-13T23:00:59.767Z,2.20
2023-02-13T23:03:27.017Z,2.55
2023-02-13T23:05:53.604Z,2.63
2023-02-13T23:08:20.458Z,2.35
2023-02-13T23:11:06.932Z,2.10
2023-02-13T23:13:33.477Z,2.35
2023-02-13T23:16:00.083Z,2.30
2023-02-13T23:18:26.671Z,2.47
2023-02-13T23:20:53.235Z,2.55
2023-02-13T23:23:19.799Z,2.17
2023-02-13T23:25:46.327Z,1.85
2023-02-13T23:28:12.871Z,2.30
2023-02-13T23:30:39.740Z,2.50
2023-02-13T23:33:06.332Z,2.10
2023-02-13T23:35:32.910Z,2.22
2023-02-13T23:37:59.447Z,1.90
2023-02-13T23:40:26.026Z,2.75
2023-02-13T23:42:52.567Z,2.13
2023-02-13T23:45:19.229Z,2.20
2023-02-13T23:47:45.734Z,2.05
2023-02-13T23:50:12.308Z,2.05
2023-02-13T23:52:38.942Z,2.10
2023-02-13T23:55:05.878Z,1.92
2023-02-13T23:57:32.410Z,1.90
2023-02-13T23:59:59.024Z,1.77
